Research Triangle Park, North Carolina
Current Conditions -  °F | °C
As of 1:51 PM on Friday 28 Nov 2014 (Local Time) from KRDU Reporting Station
Clear Clear  
Wind Chill: 41°   Ceiling: Unl
Heat Index: 44°   Visibility: 10mi
Dew Point: 21°   Wind: 6mph
Humidity: 40%   Direction: NA
Pressure: 30.29"   Gusts: NA
Location:  35.9144°N, 78.8655°W
Report Text: KRDU 281851Z VRB05KT 10SM CLR 07/M06 A3029 RMK AO2 SLP260 T00671061
Loading
Personal Weather Stations






























Interactive Weather Map New forecast layout! Learn more

10-Day Weather Forecast

Advertisements
Track Severe Weather on mobile